aviador You're here:

SCIP Decoded Metar

EASTER ISLAND in CHILE
Report Time2017-11-22 05:00:00
UTC Time2017-11-22 05:32:04
Flight Rules vfr VFR
Wind100° at 12 kt
W.Decomp.*RWY 10: 11.6 kt HW 3.1 kt LCW
W.Rank100° ranks 1
Current wind is above 100° avg. (8.5)
Visibility9999 m
Phenomena:N/A
Clouds:Scattered 020 Hf
Expected CloudBase > 1,200 ft AGL from Temp-Dew spread
CeilingNone
Temp20°C (ISA +5)
Dew Point17°C (83% RH)
AAT18.1°C
QNH1027 hPa
Density Alt650 ft
Elevation226 ft
Report Wrong Elevation
Raw Report
SCIP 220500Z 10012KT 9999 SCT020 20/17 Q1027 NOSIG=

Extra information for SCIP:More info

Metar Taf Metar & Taf Last 4 Metars F.Rules Stats Wind Profile Meteogram Temp Stats Airport Information Weather charts Add Link Nearby VenuesMetar ALERT Operation Metar Decoded Social comments